createdAt,value
2023-10-10T00:01:46.774Z,97565.06
2023-10-10T00:04:14.815Z,97569.53
2023-10-10T00:06:43.097Z,97558.78
2023-10-10T00:09:13.913Z,97572.53
2023-10-10T00:11:44.759Z,97578.88
2023-10-10T00:14:20.263Z,97563.03
2023-10-10T00:16:55.973Z,97560.81
2023-10-10T00:19:30.044Z,97584.00
2023-10-10T00:21:57.976Z,97586.56
2023-10-10T00:24:32.177Z,97584.69
2023-10-10T00:27:07.273Z,97583.94
2023-10-10T00:29:35.250Z,97581.59
2023-10-10T00:32:14.434Z,97569.63
2023-10-10T00:34:44.597Z,97571.69
2023-10-10T00:37:14.578Z,97577.69
2023-10-10T00:39:48.930Z,97582.53
2023-10-10T00:42:21.405Z,97578.97
2023-10-10T00:44:49.851Z,97570.00
2023-10-10T00:47:17.685Z,97574.72
2023-10-10T00:49:46.782Z,97577.59
2023-10-10T00:52:18.055Z,97571.81
2023-10-10T00:54:46.807Z,97577.72
2023-10-10T00:57:15.295Z,97578.28
2023-10-10T00:59:47.008Z,97580.38
2023-10-10T01:02:17.642Z,97575.97
2023-10-10T01:04:54.950Z,97574.09
2023-10-10T01:07:24.248Z,97578.69
2023-10-10T01:09:56.993Z,97575.69
2023-10-10T01:12:30.167Z,97573.94
2023-10-10T01:14:59.033Z,97577.56
2023-10-10T01:17:30.856Z,97568.66
2023-10-10T01:20:10.954Z,97570.03
2023-10-10T01:22:41.441Z,97565.53
2023-10-10T01:25:28.208Z,97558.50
2023-10-10T01:27:59.480Z,97560.94
2023-10-10T01:30:45.236Z,97570.59
2023-10-10T01:33:16.352Z,97575.56
2023-10-10T01:35:44.921Z,97576.13
2023-10-10T01:38:28.471Z,97578.19
2023-10-10T01:40:56.543Z,97579.03
2023-10-10T01:43:25.558Z,97586.25
2023-10-10T01:46:18.546Z,97585.41
2023-10-10T01:48:46.946Z,97582.88
2023-10-10T01:51:17.501Z,97589.19
2023-10-10T01:53:45.490Z,97581.97
2023-10-10T01:56:13.440Z,97586.34
2023-10-10T01:58:42.361Z,97582.97
2023-10-10T02:01:20.728Z,97580.69
2023-10-10T02:03:49.422Z,97575.41
2023-10-10T02:06:28.842Z,97572.78
2023-10-10T02:09:11.960Z,97564.50
2023-10-10T02:11:40.222Z,97572.53
2023-10-10T02:14:12.454Z,97579.84
2023-10-10T02:16:41.397Z,97575.50
2023-10-10T02:19:17.487Z,97575.69
2023-10-10T02:21:48.961Z,97582.75
2023-10-10T02:24:28.907Z,97577.91
2023-10-10T02:26:56.977Z,97576.28
2023-10-10T02:29:30.770Z,97569.47
2023-10-10T02:32:24.827Z,97570.53
2023-10-10T02:35:18.377Z,97571.75
2023-10-10T02:37:47.014Z,97571.06
2023-10-10T02:40:16.271Z,97562.44
2023-10-10T02:43:12.853Z,97560.88
2023-10-10T02:45:45.966Z,97567.63
2023-10-10T02:48:21.716Z,97574.34
2023-10-10T02:50:52.757Z,97574.81
2023-10-10T02:53:21.176Z,97579.72
2023-10-10T02:55:52.587Z,97586.78
2023-10-10T02:58:23.287Z,97583.44
2023-10-10T03:00:51.825Z,97582.66
2023-10-10T03:03:19.978Z,97588.16
2023-10-10T03:05:55.700Z,97590.19
2023-10-10T03:08:36.625Z,97585.31
2023-10-10T03:11:15.888Z,97580.13
2023-10-10T03:13:49.595Z,97587.56
2023-10-10T03:16:23.729Z,97586.53
2023-10-10T03:19:03.868Z,97573.81
2023-10-10T03:21:51.065Z,97570.69
2023-10-10T03:24:21.898Z,97581.06
2023-10-10T03:26:50.134Z,97585.47
2023-10-10T03:29:28.262Z,97578.75
2023-10-10T03:32:15.342Z,97572.97
2023-10-10T03:34:46.345Z,97584.13
2023-10-10T03:37:30.530Z,97582.88
2023-10-10T03:40:16.982Z,97581.75
2023-10-10T03:43:03.324Z,97592.81
2023-10-10T03:45:49.729Z,97580.31
2023-10-10T03:48:36.098Z,97590.34
2023-10-10T03:51:22.381Z,97591.34
2023-10-10T03:54:08.860Z,97593.59
2023-10-10T03:56:55.385Z,97585.50
2023-10-10T03:59:42.026Z,97585.47
2023-10-10T04:02:28.423Z,97591.84
2023-10-10T04:05:26.430Z,97593.06
2023-10-10T04:08:14.365Z,97585.22
2023-10-10T04:11:06.946Z,97586.53
2023-10-10T04:13:53.334Z,97598.47
2023-10-10T04:16:39.741Z,97595.22
2023-10-10T04:19:26.092Z,97598.09
2023-10-10T04:22:12.473Z,97593.63
2023-10-10T04:25:02.137Z,97598.41
2023-10-10T04:27:49.253Z,97614.69
2023-10-10T04:30:35.601Z,97597.63
2023-10-10T04:33:22.059Z,97606.81
2023-10-10T04:36:08.623Z,97603.91
2023-10-10T04:38:55.156Z,97600.88
2023-10-10T04:41:41.400Z,97597.09
2023-10-10T04:44:27.781Z,97601.97
2023-10-10T04:47:13.886Z,97614.19
2023-10-10T04:50:00.489Z,97608.03
2023-10-10T04:52:46.542Z,97610.50
2023-10-10T04:55:32.795Z,97622.59
2023-10-10T04:58:19.278Z,97633.06
2023-10-10T05:01:05.482Z,97633.16
2023-10-10T05:03:51.813Z,97645.44
2023-10-10T05:06:38.251Z,97640.72
2023-10-10T05:09:24.758Z,97648.41
2023-10-10T05:12:12.503Z,97665.16
2023-10-10T05:14:58.843Z,97668.41
2023-10-10T05:17:45.346Z,97664.53
2023-10-10T05:20:31.954Z,97666.28
2023-10-10T05:23:18.301Z,97666.66
2023-10-10T05:25:46.062Z,97673.59
2023-10-10T05:28:13.783Z,97678.88
2023-10-10T05:30:44.066Z,97673.19
2023-10-10T05:33:13.957Z,97679.56
2023-10-10T05:35:49.740Z,97678.59
2023-10-10T05:38:18.007Z,97683.91
2023-10-10T05:40:48.446Z,97689.41
2023-10-10T05:43:17.227Z,97690.06
2023-10-10T05:45:45.430Z,97701.06
2023-10-10T05:48:13.617Z,97700.06
2023-10-10T05:50:44.382Z,97693.34
2023-10-10T05:53:12.326Z,97702.41
2023-10-10T05:55:40.142Z,97703.84
2023-10-10T05:58:09.780Z,97699.22
2023-10-10T06:00:37.946Z,97706.97
2023-10-10T06:03:09.067Z,97705.91
2023-10-10T06:05:37.043Z,97700.28
2023-10-10T06:08:07.269Z,97698.75
2023-10-10T06:10:35.257Z,97703.75
2023-10-10T06:27:10.124Z,97714.69
2023-10-10T06:29:41.674Z,97713.59
2023-10-10T06:32:16.746Z,97720.72
2023-10-10T06:35:04.494Z,97726.97
2023-10-10T06:37:36.667Z,97722.47
2023-10-10T06:40:09.505Z,97725.09
2023-10-10T06:42:38.259Z,97727.78
2023-10-10T06:45:11.379Z,97733.94
2023-10-10T06:47:46.092Z,97742.69
2023-10-10T06:50:14.126Z,97741.28
2023-10-10T06:52:45.163Z,97739.72
2023-10-10T06:55:13.888Z,97742.13
2023-10-10T06:57:45.925Z,97745.63
2023-10-10T07:00:17.627Z,97746.72
2023-10-10T07:02:49.839Z,97747.47
2023-10-10T07:05:20.357Z,97751.63
2023-10-10T07:07:53.620Z,97757.19
2023-10-10T07:10:34.287Z,97760.28
2023-10-10T07:13:03.309Z,97762.75
2023-10-10T07:15:38.196Z,97770.09
2023-10-10T07:18:09.726Z,97768.81
2023-10-10T07:21:05.547Z,97773.06
2023-10-10T07:23:40.384Z,97775.25
2023-10-10T07:26:20.573Z,97783.31
2023-10-10T07:28:49.541Z,97773.66
2023-10-10T07:31:24.728Z,97773.66
2023-10-10T07:34:05.347Z,97777.94
2023-10-10T07:36:33.166Z,97788.63
2023-10-10T07:39:39.421Z,97788.63
2023-10-10T07:42:10.390Z,97789.94
2023-10-10T07:44:38.424Z,97785.56
2023-10-10T07:47:18.413Z,97795.53
2023-10-10T07:49:52.097Z,97805.25
2023-10-10T07:52:21.652Z,97801.38
2023-10-10T07:54:54.323Z,97798.81
2023-10-10T07:57:29.602Z,97799.59
2023-10-10T07:59:58.457Z,97799.72
2023-10-10T08:02:26.947Z,97803.72
2023-10-10T08:04:55.575Z,97808.69
2023-10-10T08:07:27.433Z,97809.91
2023-10-10T08:10:14.097Z,97818.75
2023-10-10T08:12:42.547Z,97814.63
2023-10-10T08:15:26.491Z,97816.75
2023-10-10T08:17:55.866Z,97817.81
2023-10-10T08:20:43.506Z,97815.75
2023-10-10T08:23:15.527Z,97820.97
2023-10-10T08:25:49.759Z,97826.94
2023-10-10T08:28:17.578Z,97819.41
2023-10-10T08:30:45.446Z,97818.63
2023-10-10T08:33:15.667Z,97823.03
2023-10-10T08:35:43.905Z,97807.97
2023-10-10T08:38:14.621Z,97818.47
2023-10-10T08:40:42.438Z,97816.44
2023-10-10T08:43:10.430Z,97808.56
2023-10-10T08:45:41.683Z,97818.63
2023-10-10T08:48:14.014Z,97817.53
2023-10-10T08:50:43.016Z,97812.19
2023-10-10T08:53:12.282Z,97815.44
2023-10-10T08:55:41.831Z,97819.22
2023-10-10T08:58:09.716Z,97813.78
2023-10-10T09:00:38.879Z,97819.78
2023-10-10T09:03:09.641Z,97822.94
2023-10-10T09:05:38.227Z,97822.63
2023-10-10T09:08:18.245Z,97814.50
2023-10-10T09:10:47.649Z,97823.44
2023-10-10T09:13:18.637Z,97825.81
2023-10-10T09:15:55.343Z,97835.47
2023-10-10T09:18:24.356Z,97830.84
2023-10-10T09:20:52.723Z,97837.44
2023-10-10T09:23:22.832Z,97836.22
2023-10-10T09:25:58.987Z,97831.34
2023-10-10T09:28:32.022Z,97829.75
2023-10-10T09:31:14.022Z,97830.00
2023-10-10T09:33:46.907Z,97832.88
2023-10-10T09:36:21.024Z,97824.53
2023-10-10T09:38:54.484Z,97832.63
2023-10-10T09:41:28.601Z,97830.59
2023-10-10T09:44:21.336Z,97829.09
2023-10-10T09:47:10.756Z,97832.19
2023-10-10T09:49:47.939Z,97831.22
2023-10-10T09:52:38.609Z,97836.81
2023-10-10T09:55:10.199Z,97844.31
2023-10-10T09:57:41.836Z,97844.66
2023-10-10T10:00:27.175Z,97850.34
2023-10-10T10:02:59.168Z,97850.53
2023-10-10T10:05:30.270Z,97847.13
2023-10-10T10:08:07.538Z,97838.13
2023-10-10T10:11:11.323Z,97843.47
2023-10-10T10:14:13.018Z,97847.28
2023-10-10T10:17:14.173Z,97851.72
2023-10-10T10:19:48.952Z,97852.56
2023-10-10T10:22:20.234Z,97853.75
2023-10-10T10:24:48.075Z,97845.63
2023-10-10T10:27:26.619Z,97850.53
2023-10-10T10:29:57.672Z,97858.16
2023-10-10T10:32:25.920Z,97860.50
2023-10-10T10:34:59.626Z,97857.84
2023-10-10T10:37:29.538Z,97849.31
2023-10-10T10:40:12.840Z,97851.66
2023-10-10T10:42:47.854Z,97857.84
2023-10-10T10:45:42.751Z,97856.56
2023-10-10T10:48:21.622Z,97851.41
2023-10-10T10:51:03.227Z,97844.81
2023-10-10T10:53:39.797Z,97832.91
2023-10-10T10:56:27.836Z,97829.25
2023-10-10T10:58:55.723Z,97831.91
2023-10-10T11:01:29.897Z,97826.72
2023-10-10T11:03:57.681Z,97828.34
2023-10-10T11:06:25.875Z,97831.63
2023-10-10T11:11:29.012Z,97833.13
2023-10-10T11:14:01.618Z,97828.81
2023-10-10T11:16:39.566Z,97835.38
2023-10-10T11:19:26.927Z,97831.72
2023-10-10T11:21:58.517Z,97832.94
2023-10-10T11:24:27.367Z,97827.16
2023-10-10T11:27:07.084Z,97827.50
2023-10-10T11:29:49.032Z,97819.09
2023-10-10T11:44:05.055Z,97810.81
2023-10-10T11:46:33.941Z,97819.88
2023-10-10T11:49:01.688Z,97820.56
2023-10-10T11:51:36.398Z,97813.91
2023-10-10T11:54:04.339Z,97816.03
2023-10-10T11:56:35.809Z,97812.69
2023-10-10T11:59:15.328Z,97818.78
2023-10-10T12:01:58.589Z,97816.34
2023-10-10T12:04:32.852Z,97810.78
2023-10-10T12:07:05.388Z,97807.81
2023-10-10T12:09:34.467Z,97810.06
2023-10-10T12:12:05.452Z,97801.81
2023-10-10T12:14:33.830Z,97811.41
2023-10-10T12:17:06.618Z,97804.22
2023-10-10T12:19:37.799Z,97802.69
2023-10-10T12:22:12.441Z,97812.31
2023-10-10T12:24:43.408Z,97807.31
2023-10-10T12:27:11.435Z,97810.81
2023-10-10T12:29:42.725Z,97803.22
2023-10-10T12:32:17.057Z,97815.25
2023-10-10T12:34:47.001Z,97809.66
2023-10-10T12:37:18.105Z,97804.75
2023-10-10T12:39:46.606Z,97807.31
2023-10-10T12:42:14.326Z,97804.25
2023-10-10T12:44:49.277Z,97804.06
2023-10-10T12:47:19.127Z,97806.75
2023-10-10T12:49:47.315Z,97806.25
2023-10-10T12:52:18.690Z,97809.06
2023-10-10T12:54:48.880Z,97802.22
2023-10-10T12:57:16.635Z,97807.69
2023-10-10T12:59:47.826Z,97805.03
2023-10-10T13:02:16.969Z,97799.31
2023-10-10T13:04:48.425Z,97798.56
2023-10-10T13:07:19.476Z,97802.31
2023-10-10T13:09:48.134Z,97807.63
2023-10-10T13:12:28.872Z,97805.91
2023-10-10T13:15:16.762Z,97810.84
2023-10-10T13:18:06.626Z,97799.72
2023-10-10T13:20:34.467Z,97802.28
2023-10-10T13:23:02.187Z,97798.13
2023-10-10T13:25:30.052Z,97799.34
2023-10-10T13:27:57.779Z,97801.56
2023-10-10T13:30:25.504Z,97795.53
2023-10-10T13:32:54.571Z,97801.09
2023-10-10T13:35:23.201Z,97792.66
2023-10-10T13:37:50.904Z,97798.13
2023-10-10T13:40:24.558Z,97788.34
2023-10-10T13:42:52.422Z,97780.84
2023-10-10T13:45:23.592Z,97791.41
2023-10-10T13:47:51.767Z,97790.66
2023-10-10T13:50:29.618Z,97788.00
2023-10-10T13:52:57.871Z,97792.59
2023-10-10T13:55:25.606Z,97782.97
2023-10-10T13:57:54.800Z,97790.00
2023-10-10T14:00:34.773Z,97791.56
2023-10-10T14:03:05.411Z,97783.69
2023-10-10T14:05:37.999Z,97775.03
2023-10-10T14:08:10.921Z,97786.63
2023-10-10T14:10:42.524Z,97780.56
2023-10-10T14:13:28.438Z,97785.06
2023-10-10T14:15:56.463Z,97779.84
2023-10-10T14:18:31.050Z,97789.13
2023-10-10T14:21:09.324Z,97785.06
2023-10-10T14:23:37.575Z,97792.00
2023-10-10T14:26:15.313Z,97790.13
2023-10-10T14:28:51.985Z,97795.97
2023-10-10T14:31:29.303Z,97798.34
2023-10-10T14:34:00.942Z,97799.38
2023-10-10T14:36:28.931Z,97801.25
2023-10-10T14:39:01.531Z,97804.94
2023-10-10T14:41:31.397Z,97807.75
2023-10-10T14:44:02.395Z,97809.53
2023-10-10T14:46:33.006Z,97806.16
2023-10-10T14:49:02.833Z,97805.09
2023-10-10T14:51:39.782Z,97811.69
2023-10-10T14:54:09.252Z,97816.19
2023-10-10T14:56:37.787Z,97824.53
2023-10-10T14:59:08.744Z,97822.63
2023-10-10T15:01:37.291Z,97827.00
2023-10-10T15:04:05.810Z,97828.56
2023-10-10T15:06:34.781Z,97819.88
2023-10-10T15:09:03.147Z,97821.59
2023-10-10T15:11:31.009Z,97828.44
2023-10-10T15:13:59.112Z,97835.56
2023-10-10T15:16:28.952Z,97836.25
2023-10-10T15:18:56.882Z,97838.09
2023-10-10T15:21:33.952Z,97845.41
2023-10-10T15:24:02.334Z,97848.16
2023-10-10T15:26:30.656Z,97840.06
2023-10-10T15:28:58.543Z,97853.00
2023-10-10T15:31:28.114Z,97858.16
2023-10-10T15:33:56.103Z,97855.63
2023-10-10T15:36:24.368Z,97855.13
2023-10-10T15:38:52.144Z,97858.03
2023-10-10T15:41:21.416Z,97860.84
2023-10-10T15:43:49.347Z,97863.38
2023-10-10T15:46:17.835Z,97866.50
2023-10-10T15:48:55.142Z,97867.19
2023-10-10T15:51:22.912Z,97870.00
2023-10-10T15:53:50.781Z,97862.91
2023-10-10T15:56:18.582Z,97869.53
2023-10-10T15:58:53.749Z,97868.88
2023-10-10T16:01:32.733Z,97870.09
2023-10-10T16:04:19.081Z,97877.41
2023-10-10T16:06:51.655Z,97875.31
2023-10-10T16:09:30.684Z,97879.84
2023-10-10T16:11:58.878Z,97883.41
2023-10-10T16:14:27.457Z,97883.78
2023-10-10T16:16:56.014Z,97895.31
2023-10-10T16:19:33.604Z,97887.00
2023-10-10T16:22:02.524Z,97899.72
2023-10-10T16:24:30.729Z,97897.34
2023-10-10T16:27:02.644Z,97883.03
2023-10-10T16:29:36.705Z,97898.88
2023-10-10T16:32:09.417Z,97898.88
2023-10-10T16:34:41.490Z,97904.38
2023-10-10T16:37:15.556Z,97909.16
2023-10-10T16:39:47.832Z,97911.59
2023-10-10T16:42:19.904Z,97912.66
2023-10-10T16:44:48.168Z,97920.09
2023-10-10T16:47:20.841Z,97913.25
2023-10-10T16:49:51.079Z,97921.97
2023-10-10T16:52:19.821Z,97921.72
2023-10-10T16:54:51.916Z,97916.16
2023-10-10T16:57:23.384Z,97921.28
2023-10-10T16:59:51.491Z,97929.59
2023-10-10T17:02:19.283Z,97919.25
2023-10-10T17:04:47.169Z,97918.41
2023-10-10T17:07:14.947Z,97924.03
2023-10-10T17:09:42.761Z,97923.84
2023-10-10T17:12:10.624Z,97923.47
2023-10-10T17:14:38.703Z,97926.25
2023-10-10T17:17:06.687Z,97923.63
2023-10-10T17:19:36.825Z,97931.47
2023-10-10T17:22:04.669Z,97932.72
2023-10-10T17:24:32.705Z,97935.44
2023-10-10T17:27:01.895Z,97941.63
2023-10-10T17:29:30.986Z,97938.06
2023-10-10T17:31:58.784Z,97936.13
2023-10-10T17:34:34.112Z,97932.16
2023-10-10T17:37:02.093Z,97933.41
2023-10-10T17:39:34.936Z,97945.09
2023-10-10T17:42:03.492Z,97939.72
2023-10-10T17:44:32.657Z,97948.06
2023-10-10T17:47:00.669Z,97951.34
2023-10-10T17:49:28.475Z,97949.00
2023-10-10T17:51:56.387Z,97954.94
2023-10-10T17:54:24.251Z,97955.25
2023-10-10T17:56:52.027Z,97953.28
2023-10-10T17:59:20.704Z,97954.47
2023-10-10T18:01:48.839Z,97950.22
2023-10-10T18:04:17.199Z,97952.56
2023-10-10T18:06:46.075Z,97951.78
2023-10-10T18:09:17.926Z,97953.03
2023-10-10T18:11:49.890Z,97957.25
2023-10-10T18:14:18.657Z,97961.63
2023-10-10T18:16:46.840Z,97966.03
2023-10-10T18:19:18.714Z,97968.81
2023-10-10T18:21:46.949Z,97967.44
2023-10-10T18:24:15.239Z,97965.13
2023-10-10T18:26:43.591Z,97972.03
2023-10-10T18:29:11.542Z,97964.25
2023-10-10T18:31:39.814Z,97967.94
2023-10-10T18:34:08.197Z,97972.25
2023-10-10T18:36:38.690Z,97971.53
2023-10-10T18:39:14.438Z,97973.06
2023-10-10T18:41:42.917Z,97977.38
2023-10-10T18:44:11.282Z,97987.63
2023-10-10T18:46:39.113Z,97990.66
2023-10-10T18:49:07.553Z,97988.44
2023-10-10T18:51:35.397Z,97999.50
2023-10-10T18:54:05.402Z,97999.31
2023-10-10T18:56:33.368Z,98008.31
2023-10-10T18:59:02.219Z,97996.13
2023-10-10T19:01:30.028Z,98012.56
2023-10-10T19:04:00.225Z,98022.50
2023-10-10T19:06:28.203Z,98027.16
2023-10-10T19:09:01.052Z,98013.50
2023-10-10T19:11:29.009Z,98024.59
2023-10-10T19:13:57.005Z,98034.00
2023-10-10T19:16:25.300Z,98032.34
2023-10-10T19:18:53.242Z,98042.09
2023-10-10T19:21:21.133Z,98039.81
2023-10-10T19:23:49.527Z,98049.53
2023-10-10T19:26:18.054Z,98048.72
2023-10-10T19:28:54.372Z,98050.03
2023-10-10T19:31:23.240Z,98053.94
2023-10-10T19:33:51.697Z,98057.19
2023-10-10T19:36:21.183Z,98060.13
2023-10-10T19:38:49.509Z,98061.81
2023-10-10T19:41:19.160Z,98056.97
2023-10-10T19:43:47.238Z,98063.75
2023-10-10T19:46:15.110Z,98065.91
2023-10-10T19:48:43.422Z,98056.28
2023-10-10T19:51:18.822Z,98063.63
2023-10-10T19:53:50.229Z,98050.69
2023-10-10T19:56:18.731Z,98066.72
2023-10-10T19:58:49.964Z,98069.28
2023-10-10T20:01:18.240Z,98072.66
2023-10-10T20:03:47.088Z,98082.06
2023-10-10T20:06:16.230Z,98078.53
2023-10-10T20:08:44.027Z,98080.81
2023-10-10T20:11:11.777Z,98083.88
2023-10-10T20:13:40.823Z,98089.50
2023-10-10T20:16:16.030Z,98087.59
2023-10-10T20:18:47.429Z,98087.94
2023-10-10T20:21:16.881Z,98088.84
2023-10-10T20:23:45.400Z,98088.16
2023-10-10T20:26:19.616Z,98094.03
2023-10-10T20:28:49.209Z,98093.81
2023-10-10T20:31:22.901Z,98083.19
2023-10-10T20:33:51.580Z,98086.59
2023-10-10T20:36:19.661Z,98084.66
2023-10-10T20:38:48.096Z,98090.75
2023-10-10T20:41:16.257Z,98089.34
2023-10-10T20:43:44.132Z,98086.69
2023-10-10T20:46:19.907Z,98081.06
2023-10-10T20:48:48.656Z,98077.97
2023-10-10T20:51:16.710Z,98093.75
2023-10-10T20:53:46.634Z,98082.94
2023-10-10T20:56:16.195Z,98086.44
2023-10-10T20:58:43.978Z,98077.66
2023-10-10T21:01:15.345Z,98081.59
2023-10-10T21:03:43.331Z,98092.53
2023-10-10T21:06:13.013Z,98085.81
2023-10-10T21:08:41.446Z,98091.97
2023-10-10T21:11:10.570Z,98091.16
2023-10-10T21:13:38.504Z,98100.19
2023-10-10T21:16:15.607Z,98092.84
2023-10-10T21:18:45.779Z,98092.66
2023-10-10T21:21:14.676Z,98088.03
2023-10-10T21:23:43.637Z,98097.19
2023-10-10T21:26:15.501Z,98095.59
2023-10-10T21:28:44.030Z,98097.66
2023-10-10T21:31:12.034Z,98098.53
2023-10-10T21:33:41.495Z,98091.28
2023-10-10T21:36:10.213Z,98091.66
2023-10-10T21:38:38.534Z,98109.47
2023-10-10T21:41:07.655Z,98111.16
2023-10-10T21:43:35.570Z,98108.94
2023-10-10T21:46:05.976Z,98106.19
2023-10-10T21:48:33.949Z,98115.75
2023-10-10T21:51:07.430Z,98122.03
2023-10-10T21:53:37.530Z,98109.53
2023-10-10T21:56:06.700Z,98111.41
2023-10-10T21:58:34.641Z,98123.44
2023-10-10T22:01:03.895Z,98124.78
2023-10-10T22:03:33.594Z,98125.03
2023-10-10T22:06:01.582Z,98123.59
2023-10-10T22:08:31.563Z,98117.59
2023-10-10T22:11:03.156Z,98124.88
2023-10-10T22:13:31.316Z,98130.09
2023-10-10T22:15:59.094Z,98125.00
2023-10-10T22:18:26.934Z,98122.31
2023-10-10T22:20:57.405Z,98128.94
2023-10-10T22:23:27.523Z,98121.97
2023-10-10T22:26:01.421Z,98129.31
2023-10-10T22:28:30.195Z,98127.53
2023-10-10T22:31:00.413Z,98127.06
2023-10-10T22:33:28.408Z,98130.41
2023-10-10T22:35:56.441Z,98121.34
2023-10-10T22:38:24.592Z,98127.16
2023-10-10T22:40:54.568Z,98132.59
2023-10-10T22:43:22.533Z,98133.28
2023-10-10T22:45:50.427Z,98134.00
2023-10-10T22:48:18.241Z,98142.38
2023-10-10T22:50:46.904Z,98134.66
2023-10-10T22:53:17.101Z,98134.44
2023-10-10T22:55:45.534Z,98139.69
2023-10-10T22:58:16.497Z,98148.66
2023-10-10T23:00:48.681Z,98142.41
2023-10-10T23:03:20.434Z,98143.44
2023-10-10T23:05:48.589Z,98140.50
2023-10-10T23:08:17.197Z,98138.94
2023-10-10T23:10:47.476Z,98139.63
2023-10-10T23:13:17.062Z,98140.13
2023-10-10T23:15:49.180Z,98141.94
2023-10-10T23:18:17.600Z,98142.25
2023-10-10T23:20:45.629Z,98145.31
2023-10-10T23:23:13.662Z,98145.09
2023-10-10T23:25:41.559Z,98144.91
2023-10-10T23:28:09.735Z,98142.84
2023-10-10T23:30:40.434Z,98150.59
2023-10-10T23:33:12.383Z,98146.88
2023-10-10T23:35:41.604Z,98129.53
2023-10-10T23:38:10.625Z,98130.88
2023-10-10T23:40:40.232Z,98139.41
2023-10-10T23:43:09.375Z,98130.44
2023-10-10T23:45:42.771Z,98141.88
2023-10-10T23:48:16.957Z,98142.41
2023-10-10T23:50:45.371Z,98133.47
2023-10-10T23:53:16.348Z,98147.69
2023-10-10T23:55:48.078Z,98139.41
2023-10-10T23:58:16.564Z,98142.00
